Time;durP1;ratioP1;P1;durP2;ratioP2;P2;SDS_P1;SDS_P2;PMS_P1;PMS_P2;Temp;Humidity;BMP_temperature;BMP_pressure;BME280_temperature;BME280_humidity;BME280_pressure;Samples;Min_cycle;Max_cycle;Signal;HPM_P1;HPM_P2
2021/12/02 00:04:56;;;;;;;147.20;116.32;;;21.80;52.20;;;;;;4810574;54;21508;-23
2021/12/02 00:09:57;;;;;;;145.40;117.68;;;21.80;52.30;;;;;;4811255;54;21023;-26
2021/12/02 00:15:05;;;;;;;145.93;118.07;;;21.80;52.30;;;;;;4812355;54;21719;-27
2021/12/02 00:25:26;;;;;;;145.15;117.20;;;21.70;52.30;;;;;;4797191;54;21443;-22
2021/12/02 00:30:27;;;;;;;142.82;115.53;;;21.80;52.30;;;;;;4794408;58;21011;-26
2021/12/02 00:35:28;;;;;;;143.55;116.20;;;21.80;52.30;;;;;;4808155;54;21055;-24
2021/12/02 00:40:32;;;;;;;143.48;114.62;;;21.80;52.30;;;;;;4796771;54;21039;-24
2021/12/02 00:45:34;;;;;;;139.07;113.03;;;21.70;52.30;;;;;;4795228;58;21008;-21
2021/12/02 00:50:37;;;;;;;140.65;112.55;;;21.70;52.30;;;;;;4814263;54;21506;-26
2021/12/02 00:55:40;;;;;;;139.12;113.03;;;21.70;52.30;;;;;;4795291;58;21121;-27
2021/12/02 01:00:41;;;;;;;143.00;112.60;;;21.70;52.30;;;;;;4812436;54;21550;-23
2021/12/02 01:05:42;;;;;;;142.35;112.03;;;21.70;52.40;;;;;;4815339;54;21035;-23
2021/12/02 01:10:43;;;;;;;138.88;110.72;;;21.70;52.40;;;;;;4807492;54;21481;-25
2021/12/02 01:15:43;;;;;;;138.25;112.53;;;21.70;53.10;;;;;;4842393;54;21060;-37
2021/12/02 01:20:48;;;;;;;131.18;106.70;;;21.70;52.50;;;;;;4833758;54;20999;-33
2021/12/02 01:25:57;;;;;;;137.30;110.93;;;21.70;52.50;;;;;;4795174;58;21040;-21
2021/12/02 01:30:58;;;;;;;133.02;105.90;;;21.70;52.50;;;;;;4807001;54;21075;-24
2021/12/02 01:36:01;;;;;;;137.40;108.70;;;21.70;52.50;;;;;;4795469;58;21095;-22
2021/12/02 01:41:04;;;;;;;130.37;105.30;;;21.70;52.50;;;;;;4811750;54;21032;-24
2021/12/02 01:46:05;;;;;;;133.23;105.75;;;21.70;52.50;;;;;;4823157;54;21016;-19
2021/12/02 01:51:13;;;;;;;129.55;105.45;;;21.70;52.50;;;;;;4818716;54;21090;-21
2021/12/02 01:56:16;;;;;;;131.65;104.78;;;21.70;52.50;;;;;;4820533;54;21026;-24
2021/12/02 02:01:27;;;;;;;129.18;103.82;;;21.70;52.50;;;;;;4795935;55;20996;-22
2021/12/02 02:06:33;;;;;;;129.43;101.62;;;21.70;52.50;;;;;;4804035;54;20999;-22
2021/12/02 02:11:34;;;;;;;128.90;103.95;;;21.70;52.50;;;;;;4806926;54;21632;-20
2021/12/02 02:16:36;;;;;;;125.90;102.03;;;21.70;52.50;;;;;;4807869;54;21035;-32
2021/12/02 02:21:37;;;;;;;126.07;101.40;;;21.70;52.50;;;;;;4830091;54;21481;-29
2021/12/02 02:26:39;;;;;;;124.05;100.43;;;21.70;52.50;;;;;;4833021;54;21011;-27
2021/12/02 02:31:42;;;;;;;124.43;101.15;;;21.70;52.60;;;;;;4804723;54;21024;-26
2021/12/02 02:37:00;;;;;;;128.62;102.10;;;21.70;52.60;;;;;;4811979;54;22017;-41
2021/12/02 02:42:03;;;;;;;121.20;97.90;;;21.60;52.50;;;;;;4794418;55;21530;-25
2021/12/02 02:47:04;;;;;;;121.75;98.72;;;21.60;52.60;;;;;;4798967;54;21493;-21
2021/12/02 02:52:06;;;;;;;118.05;94.30;;;21.60;52.60;;;;;;4794294;58;21056;-27
2021/12/02 02:57:09;;;;;;;117.60;93.60;;;21.60;52.60;;;;;;4796402;54;21592;-24
2021/12/02 03:02:24;;;;;;;121.97;97.18;;;21.60;52.60;;;;;;4795084;54;21055;-21
2021/12/02 03:07:40;;;;;;;120.03;95.50;;;21.60;52.50;;;;;;4796050;54;21537;-25
2021/12/02 03:12:56;;;;;;;115.68;92.93;;;21.60;52.60;;;;;;4796254;54;21458;-26
2021/12/02 03:17:57;;;;;;;116.75;91.68;;;21.60;52.70;;;;;;4801099;54;21565;-31
2021/12/02 03:22:58;;;;;;;113.72;92.22;;;21.60;52.60;;;;;;4795838;54;21103;-23
2021/12/02 03:27:58;;;;;;;114.60;91.03;;;21.60;52.70;;;;;;4801627;54;21059;-34
2021/12/02 03:32:59;;;;;;;112.80;91.45;;;21.60;52.60;;;;;;4802277;54;21008;-23
2021/12/02 03:38:00;;;;;;;108.28;87.75;;;21.60;52.70;;;;;;4833768;54;21091;-25
2021/12/02 03:43:01;;;;;;;112.25;89.25;;;21.60;52.60;;;;;;4803034;54;21042;-23
2021/12/02 03:48:02;;;;;;;111.57;88.68;;;21.60;52.60;;;;;;4804088;54;21553;-25
2021/12/02 03:53:03;;;;;;;106.60;86.30;;;21.60;52.60;;;;;;4799082;54;21008;-28
2021/12/02 03:58:04;;;;;;;108.50;86.15;;;21.60;52.60;;;;;;4804951;54;21170;-24
2021/12/02 04:03:07;;;;;;;105.15;84.65;;;21.60;52.70;;;;;;4806076;54;20992;-30
2021/12/02 04:08:11;;;;;;;105.03;83.65;;;21.60;52.60;;;;;;4800965;54;21028;-23
2021/12/02 04:18:30;;;;;;;107.25;83.90;;;21.60;52.70;;;;;;4797163;54;21044;-29
2021/12/02 04:23:31;;;;;;;101.93;81.78;;;21.60;52.60;;;;;;4806710;54;21009;-28
2021/12/02 04:28:32;;;;;;;96.15;79.87;;;21.60;52.70;;;;;;4796458;54;21024;-27
2021/12/02 04:33:33;;;;;;;101.97;81.10;;;21.60;52.70;;;;;;4795898;54;21485;-27
2021/12/02 04:38:36;;;;;;;103.12;79.82;;;21.60;52.70;;;;;;4795121;58;21032;-35
2021/12/02 04:43:36;;;;;;;100.00;79.85;;;21.60;52.70;;;;;;4829471;54;21007;-21
2021/12/02 04:48:37;;;;;;;96.70;77.10;;;21.60;52.70;;;;;;4796560;54;21174;-29
2021/12/02 04:53:38;;;;;;;95.75;77.10;;;21.50;52.70;;;;;;4799806;54;21142;-17
2021/12/02 04:58:39;;;;;;;94.15;75.93;;;21.60;52.70;;;;;;4795827;54;21035;-27
2021/12/02 05:03:40;;;;;;;97.78;78.45;;;21.50;52.70;;;;;;4823986;54;21067;-23
2021/12/02 05:08:40;;;;;;;94.60;75.95;;;21.50;52.70;;;;;;4823939;54;21092;-26
2021/12/02 05:13:41;;;;;;;92.95;76.18;;;21.50;52.80;;;;;;4858085;54;21068;-22
2021/12/02 05:18:42;;;;;;;94.87;74.82;;;21.50;52.80;;;;;;4802207;54;21068;-25
2021/12/02 05:23:43;;;;;;;92.32;74.03;;;21.60;52.80;;;;;;4816453;54;21059;-36
2021/12/02 05:28:44;;;;;;;89.45;71.25;;;21.50;52.70;;;;;;4826774;54;21573;-44
2021/12/02 05:33:45;;;;;;;90.45;73.30;;;21.50;52.80;;;;;;4801199;54;21080;-24
2021/12/02 05:38:45;;;;;;;87.30;70.32;;;21.50;52.80;;;;;;4794847;55;21095;-23
2021/12/02 05:43:47;;;;;;;86.60;70.37;;;21.50;52.80;;;;;;4802624;54;21008;-22
2021/12/02 05:48:48;;;;;;;88.95;70.85;;;21.50;52.90;;;;;;4812137;54;21040;-22
2021/12/02 05:53:49;;;;;;;88.25;70.43;;;21.50;52.90;;;;;;4794884;55;21152;-23
2021/12/02 05:58:50;;;;;;;85.12;68.20;;;21.50;52.90;;;;;;4795125;58;21008;-31
2021/12/02 06:03:51;;;;;;;87.50;68.30;;;21.50;53.00;;;;;;4802136;54;21107;-19
2021/12/02 06:08:52;;;;;;;84.57;68.40;;;21.50;53.20;;;;;;4826599;54;21474;-22
2021/12/02 06:13:53;;;;;;;83.05;66.35;;;21.50;53.10;;;;;;4830107;54;21004;-19
2021/12/02 06:18:54;;;;;;;85.07;68.45;;;21.50;53.30;;;;;;4803413;54;21079;-23
2021/12/02 06:23:56;;;;;;;83.40;66.43;;;21.50;53.20;;;;;;4794749;58;21008;-28
2021/12/02 06:28:57;;;;;;;80.40;65.40;;;21.50;53.30;;;;;;4802770;54;21564;-34
2021/12/02 06:33:58;;;;;;;83.28;65.40;;;21.50;53.30;;;;;;4800937;54;21067;-23
2021/12/02 06:38:59;;;;;;;82.90;66.37;;;21.50;53.30;;;;;;4815873;54;21112;-33
2021/12/02 06:44:00;;;;;;;80.03;64.80;;;21.50;53.30;;;;;;4804288;54;21004;-23
2021/12/02 06:49:01;;;;;;;80.05;64.03;;;21.50;53.30;;;;;;4801074;54;21036;-22
2021/12/02 06:54:04;;;;;;;80.53;64.45;;;21.50;53.40;;;;;;4803570;54;21127;-26
2021/12/02 06:59:05;;;;;;;76.35;62.08;;;21.50;53.30;;;;;;4801149;54;21482;-20
2021/12/02 07:04:07;;;;;;;82.78;65.50;;;21.50;53.30;;;;;;4801833;54;21076;-36
2021/12/02 07:09:08;;;;;;;84.35;64.53;;;21.50;53.50;;;;;;4799443;54;21545;-32
2021/12/02 07:14:14;;;;;;;80.05;63.87;;;21.50;53.40;;;;;;4801358;54;21079;-26
2021/12/02 07:19:15;;;;;;;81.78;64.07;;;21.50;53.40;;;;;;4795635;58;21087;-17
2021/12/02 07:24:16;;;;;;;78.95;62.78;;;21.50;53.40;;;;;;4820422;54;20992;-18
2021/12/02 07:29:18;;;;;;;78.20;63.22;;;21.50;53.30;;;;;;4795580;55;21096;-23
2021/12/02 07:34:23;;;;;;;76.43;62.15;;;21.50;53.30;;;;;;4820102;54;21070;-38
2021/12/02 07:39:25;;;;;;;80.82;62.65;;;21.50;53.30;;;;;;4822348;54;21103;-28
2021/12/02 07:44:26;;;;;;;77.25;61.45;;;21.50;53.40;;;;;;4815569;54;21067;-45
2021/12/02 07:49:27;;;;;;;80.20;63.45;;;21.50;53.40;;;;;;4805869;54;21173;-40
2021/12/02 07:54:31;;;;;;;82.18;65.18;;;21.50;53.40;;;;;;4829591;54;21116;-38
2021/12/02 07:59:33;;;;;;;82.53;64.93;;;21.50;53.40;;;;;;4806556;54;21070;-44
2021/12/02 08:04:33;;;;;;;79.20;63.67;;;21.50;53.40;;;;;;4831335;54;21004;-24
2021/12/02 08:09:34;;;;;;;79.05;63.13;;;21.50;53.40;;;;;;4819246;54;21684;-26
2021/12/02 08:14:35;;;;;;;84.55;64.62;;;21.50;53.40;;;;;;4808806;54;21091;-26
2021/12/02 08:19:36;;;;;;;80.12;64.47;;;21.50;53.40;;;;;;4826152;54;21542;-26
2021/12/02 08:24:37;;;;;;;82.45;64.12;;;21.50;53.40;;;;;;4808601;54;21056;-32
2021/12/02 08:29:38;;;;;;;83.15;64.57;;;21.50;53.40;;;;;;4794128;58;21088;-22
2021/12/02 08:34:42;;;;;;;88.45;67.78;;;21.50;53.50;;;;;;4811840;54;21565;-19
2021/12/02 08:39:45;;;;;;;88.57;70.40;;;21.60;54.10;;;;;;4801930;54;21063;-40
2021/12/02 08:44:49;;;;;;;84.13;67.15;;;21.80;54.30;;;;;;4794923;55;21565;-41
2021/12/02 08:49:53;;;;;;;85.85;69.87;;;22.00;54.20;;;;;;4794979;58;21509;-32
2021/12/02 08:54:55;;;;;;;86.10;68.20;;;22.10;54.60;;;;;;4802605;54;21505;-23
2021/12/02 08:59:55;;;;;;;86.45;68.43;;;22.30;53.80;;;;;;4843402;54;21079;-32
2021/12/02 09:04:57;;;;;;;89.85;69.47;;;22.40;53.60;;;;;;4793989;58;21649;-17
2021/12/02 09:09:58;;;;;;;88.22;70.45;;;22.50;53.40;;;;;;4793867;55;21473;-22
2021/12/02 09:14:59;;;;;;;88.05;69.75;;;22.50;53.20;;;;;;4818584;54;21044;-28
2021/12/02 09:20:00;;;;;;;89.60;71.60;;;22.60;53.00;;;;;;4837471;54;21091;-21
2021/12/02 09:25:02;;;;;;;88.35;71.72;;;22.60;52.60;;;;;;4802084;54;21064;-23
2021/12/02 09:30:05;;;;;;;89.28;72.03;;;22.70;52.40;;;;;;4800868;54;21027;-27
2021/12/02 09:35:08;;;;;;;86.45;71.40;;;22.70;52.10;;;;;;4805674;54;21067;-25
2021/12/02 09:40:12;;;;;;;95.28;75.53;;;22.80;51.70;;;;;;4810867;54;21743;-24
2021/12/02 09:45:14;;;;;;;92.50;73.32;;;22.90;51.40;;;;;;4850413;54;20991;-28
2021/12/02 09:50:29;;;;;;;94.47;75.07;;;23.00;51.10;;;;;;4816919;54;21191;-25
2021/12/02 09:55:36;;;;;;;98.18;76.18;;;23.20;50.90;;;;;;4801966;54;21462;-27
2021/12/02 10:06:22;;;;;;;93.45;77.20;;;23.40;50.70;;;;;;4794650;54;21087;-26
2021/12/02 10:11:35;;;;;;;95.85;77.93;;;23.50;50.90;;;;;;4794272;58;21558;-27
2021/12/02 10:16:40;;;;;;;93.62;75.97;;;23.60;50.70;;;;;;4794871;58;22175;-26
2021/12/02 10:22:00;;;;;;;97.93;78.10;;;23.70;50.80;;;;;;4819376;54;21115;-21
2021/12/02 10:27:05;;;;;;;100.50;77.87;;;23.70;50.80;;;;;;4801910;54;21525;-26
2021/12/02 10:32:21;;;;;;;97.43;77.28;;;23.80;50.80;;;;;;4803016;54;21032;-25
2021/12/02 10:37:34;;;;;;;97.07;79.00;;;23.90;50.80;;;;;;4802530;54;21099;-26
2021/12/02 10:42:38;;;;;;;101.03;78.25;;;24.00;50.80;;;;;;4795067;58;20984;-26
2021/12/02 10:47:49;;;;;;;96.82;78.05;;;24.00;50.80;;;;;;4798238;54;21521;-26
2021/12/02 10:52:51;;;;;;;95.90;78.70;;;24.10;50.90;;;;;;4805860;54;21044;-26
2021/12/02 10:57:58;;;;;;;99.07;81.63;;;24.10;50.90;;;;;;4794761;58;21466;-26
2021/12/02 11:03:07;;;;;;;105.82;80.25;;;24.20;50.90;;;;;;4809041;54;22017;-24
2021/12/02 11:08:10;;;;;;;100.35;80.20;;;24.20;51.00;;;;;;4797102;54;21126;-26
2021/12/02 11:13:21;;;;;;;97.45;78.65;;;24.20;51.10;;;;;;4807471;54;21067;-25
2021/12/02 11:18:23;;;;;;;107.78;83.15;;;24.20;51.20;;;;;;4792659;58;20984;-22
2021/12/02 11:23:36;;;;;;;103.55;83.70;;;24.30;51.10;;;;;;4795842;54;21008;-26
2021/12/02 11:28:43;;;;;;;105.35;83.43;;;24.30;51.00;;;;;;4794322;58;21497;-26
2021/12/02 11:33:47;;;;;;;107.53;85.93;;;24.30;51.00;;;;;;4831707;54;21008;-27
2021/12/02 11:38:49;;;;;;;102.72;83.65;;;24.30;50.90;;;;;;4801102;54;21056;-26
2021/12/02 11:43:53;;;;;;;106.35;84.93;;;24.30;50.90;;;;;;4838687;54;21032;-23
2021/12/02 11:48:54;;;;;;;104.60;83.65;;;24.30;50.90;;;;;;4818490;54;22291;-25
2021/12/02 11:53:57;;;;;;;107.18;86.60;;;24.30;50.70;;;;;;4817150;54;21505;-27
2021/12/02 11:58:58;;;;;;;108.32;87.90;;;24.40;50.70;;;;;;4794713;58;21061;-23
2021/12/02 12:04:09;;;;;;;108.30;89.87;;;24.30;50.60;;;;;;4800824;54;21007;-29
2021/12/02 12:09:18;;;;;;;105.40;87.30;;;24.30;50.50;;;;;;4799454;54;21040;-25
2021/12/02 12:14:37;;;;;;;109.82;90.80;;;24.30;50.30;;;;;;4799561;54;21083;-20
2021/12/02 12:19:43;;;;;;;110.88;90.55;;;24.30;50.20;;;;;;4846203;54;20999;-27
2021/12/02 12:24:53;;;;;;;117.35;93.80;;;24.30;50.10;;;;;;4812446;54;21102;-22
2021/12/02 12:30:36;;;;;;;117.70;96.32;;;24.20;49.90;;;;;;4795293;55;21015;-28
2021/12/02 12:41:12;;;;;;;113.90;94.68;;;24.20;49.60;;;;;;4793886;58;21542;-27
2021/12/02 12:46:20;;;;;;;118.75;96.90;;;24.20;49.60;;;;;;4808243;54;21028;-28
2021/12/02 12:51:30;;;;;;;117.68;97.75;;;24.20;49.40;;;;;;4796365;54;21003;-26
2021/12/02 12:56:43;;;;;;;122.87;101.38;;;24.20;49.30;;;;;;4795288;54;20993;-27
2021/12/02 13:02:05;;;;;;;122.30;99.82;;;24.20;49.20;;;;;;4794311;55;21438;-25
2021/12/02 13:07:15;;;;;;;121.28;101.35;;;24.20;49.00;;;;;;4804522;54;21482;-25
2021/12/02 13:12:21;;;;;;;126.60;102.28;;;24.30;49.00;;;;;;4841946;54;21466;-26
2021/12/02 13:17:42;;;;;;;122.60;101.07;;;24.30;49.00;;;;;;4811648;54;21042;-26
2021/12/02 13:22:45;;;;;;;122.25;101.95;;;24.30;49.00;;;;;;4794585;58;21031;-26
2021/12/02 13:27:47;;;;;;;121.40;100.43;;;24.30;49.00;;;;;;4799512;54;21036;-23
2021/12/02 13:32:49;;;;;;;120.80;99.65;;;24.30;49.00;;;;;;4826078;54;21522;-26
2021/12/02 13:38:02;;;;;;;123.72;101.40;;;24.40;49.00;;;;;;4810452;54;21485;-25
2021/12/02 13:43:03;;;;;;;123.60;102.03;;;24.40;49.00;;;;;;4824086;54;22043;-25
2021/12/02 13:48:16;;;;;;;120.18;100.82;;;24.40;49.00;;;;;;4830601;54;21059;-27
2021/12/02 13:53:18;;;;;;;123.10;103.10;;;24.40;48.90;;;;;;4811119;54;21532;-27
2021/12/02 13:58:32;;;;;;;124.43;100.82;;;24.40;48.90;;;;;;4802661;54;21113;-23
2021/12/02 14:03:33;;;;;;;121.25;102.95;;;24.40;49.00;;;;;;4821250;54;21067;-26
2021/12/02 14:08:37;;;;;;;117.47;97.82;;;24.40;48.80;;;;;;4794470;58;20999;-26
2021/12/02 14:13:38;;;;;;;120.97;99.95;;;24.40;49.00;;;;;;4824636;54;22312;-24
2021/12/02 14:18:38;;;;;;;123.35;101.12;;;24.40;48.90;;;;;;4794214;58;21090;-27
2021/12/02 14:23:45;;;;;;;120.13;98.65;;;24.50;48.90;;;;;;4809506;54;21246;-28
2021/12/02 14:28:51;;;;;;;119.37;97.07;;;24.50;48.90;;;;;;4801502;54;21067;-24
2021/12/02 14:33:54;;;;;;;115.40;97.87;;;24.50;48.90;;;;;;4822218;54;20991;-25
2021/12/02 14:39:07;;;;;;;114.40;95.50;;;24.50;48.90;;;;;;4819201;54;21601;-26
2021/12/02 14:44:16;;;;;;;117.80;94.00;;;24.50;48.90;;;;;;4814174;54;21502;-25
2021/12/02 14:49:40;;;;;;;115.20;95.20;;;24.50;48.50;;;;;;4813405;54;21027;-26
2021/12/02 14:54:51;;;;;;;113.37;92.30;;;24.50;49.10;;;;;;4801125;54;21521;-24
2021/12/02 15:00:10;;;;;;;115.37;93.85;;;24.60;49.10;;;;;;4812014;54;22241;-27
2021/12/02 15:05:29;;;;;;;114.18;94.72;;;24.60;49.00;;;;;;4798249;54;21470;-24
2021/12/02 15:10:34;;;;;;;114.07;92.78;;;24.60;49.00;;;;;;4803774;54;21529;-27
2021/12/02 15:15:42;;;;;;;107.12;87.90;;;24.60;48.90;;;;;;4807205;54;21024;-25
2021/12/02 15:20:47;;;;;;;111.00;91.82;;;24.60;48.90;;;;;;4815267;54;21482;-25
2021/12/02 15:26:08;;;;;;;111.30;92.95;;;24.70;48.90;;;;;;4794911;55;20972;-26
2021/12/02 15:31:15;;;;;;;107.60;89.78;;;24.70;48.80;;;;;;4829299;54;21506;-26
2021/12/02 15:36:19;;;;;;;108.95;87.28;;;24.70;48.70;;;;;;4797041;54;21000;-24
2021/12/02 15:41:23;;;;;;;110.70;90.30;;;24.70;48.90;;;;;;4834842;54;21051;-25
2021/12/02 15:46:35;;;;;;;105.40;88.12;;;24.60;48.60;;;;;;4835987;54;21545;-26
2021/12/02 15:51:37;;;;;;;111.05;90.40;;;24.60;48.50;;;;;;4806594;54;21585;-26
2021/12/02 15:56:40;;;;;;;104.82;88.60;;;24.50;48.60;;;;;;4813649;54;21568;-28
2021/12/02 16:01:48;;;;;;;105.75;87.82;;;24.40;48.50;;;;;;4863208;54;21015;-25
2021/12/02 16:07:05;;;;;;;106.05;88.37;;;24.40;48.40;;;;;;4826307;54;21561;-21
2021/12/02 16:18:07;;;;;;;109.50;92.10;;;24.40;48.20;;;;;;4858862;54;21040;-29
2021/12/02 16:23:08;;;;;;;112.82;92.22;;;24.40;48.10;;;;;;4801536;54;21083;-27
2021/12/02 16:28:09;;;;;;;111.72;93.75;;;24.40;48.00;;;;;;4800875;54;20996;-24
2021/12/02 16:33:10;;;;;;;114.75;95.80;;;24.40;48.00;;;;;;4807906;54;21003;-26
2021/12/02 16:38:12;;;;;;;114.88;95.32;;;24.40;47.90;;;;;;4794772;58;21551;-28
2021/12/02 16:43:16;;;;;;;113.12;94.15;;;24.40;47.80;;;;;;4795575;54;21039;-26
2021/12/02 16:48:18;;;;;;;115.57;95.55;;;24.40;47.70;;;;;;4804172;54;21549;-28
2021/12/02 16:53:20;;;;;;;115.07;95.57;;;24.40;47.70;;;;;;4802533;54;21031;-26
2021/12/02 16:58:21;;;;;;;116.97;98.65;;;24.30;47.50;;;;;;4801635;54;21070;-27
2021/12/02 17:03:22;;;;;;;120.43;100.43;;;24.30;47.40;;;;;;4855680;54;21076;-26
2021/12/02 17:08:23;;;;;;;119.47;99.00;;;24.30;47.50;;;;;;4826781;54;21047;-26
2021/12/02 17:13:23;;;;;;;114.62;96.63;;;24.30;47.40;;;;;;4828276;54;21605;-27
2021/12/02 17:18:24;;;;;;;114.95;96.12;;;24.30;47.30;;;;;;4821488;54;21080;-27
2021/12/02 17:23:25;;;;;;;114.03;95.07;;;24.30;47.40;;;;;;4830125;54;21000;-28
2021/12/02 17:28:29;;;;;;;118.15;96.97;;;24.30;47.20;;;;;;4803232;54;21102;-27
2021/12/02 17:33:31;;;;;;;117.80;98.47;;;24.30;47.20;;;;;;4799647;54;21572;-25
2021/12/02 17:38:32;;;;;;;115.68;94.25;;;24.30;47.10;;;;;;4824263;54;21518;-23
2021/12/02 17:43:35;;;;;;;116.12;97.05;;;24.30;47.00;;;;;;4799013;54;21008;-26
2021/12/02 17:48:36;;;;;;;114.35;96.18;;;24.30;47.00;;;;;;4794305;58;21557;-26
2021/12/02 17:53:36;;;;;;;113.85;94.28;;;24.30;46.90;;;;;;4795272;54;21058;-20
2021/12/02 17:58:38;;;;;;;119.13;99.72;;;24.30;47.00;;;;;;4796454;54;21478;-23
2021/12/02 18:03:39;;;;;;;121.35;100.78;;;24.30;46.90;;;;;;4807149;54;21513;-27
2021/12/02 18:08:40;;;;;;;122.10;98.85;;;24.30;46.90;;;;;;4796606;54;21154;-23
2021/12/02 18:13:41;;;;;;;122.37;100.90;;;24.30;46.70;;;;;;4811417;54;20995;-21
2021/12/02 18:18:42;;;;;;;120.93;99.40;;;24.30;46.70;;;;;;4827094;54;21097;-25
2021/12/02 18:23:43;;;;;;;118.05;98.47;;;24.30;46.60;;;;;;4794755;58;21473;-22
2021/12/02 18:28:48;;;;;;;120.62;100.53;;;24.40;46.70;;;;;;4795157;55;21051;-25
2021/12/02 18:33:49;;;;;;;121.50;100.07;;;24.30;46.50;;;;;;4814213;54;21458;-26
2021/12/02 18:38:50;;;;;;;121.75;99.53;;;24.40;46.60;;;;;;4816763;54;21036;-23
2021/12/02 18:43:55;;;;;;;119.37;100.05;;;24.30;46.50;;;;;;4855253;54;21008;-26
2021/12/02 18:48:56;;;;;;;121.37;99.45;;;24.40;47.20;;;;;;4795525;54;22044;-28
2021/12/02 18:53:57;;;;;;;122.90;100.30;;;24.40;46.50;;;;;;4812105;54;22238;-24
2021/12/02 18:58:59;;;;;;;121.60;99.70;;;24.40;46.40;;;;;;4813311;54;21129;-25
2021/12/02 19:04:03;;;;;;;122.53;101.03;;;24.40;46.30;;;;;;4812525;54;21700;-28
2021/12/02 19:30:26;;;;;;;122.10;102.47;;;24.40;46.20;;;;;;4794674;54;21056;-25
2021/12/02 19:35:28;;;;;;;125.20;103.62;;;24.40;46.20;;;;;;4864527;54;21024;-23
2021/12/02 19:40:30;;;;;;;121.30;98.15;;;24.40;46.10;;;;;;4814185;54;21036;-27
2021/12/02 19:45:32;;;;;;;120.43;100.78;;;24.40;46.10;;;;;;4836451;54;21440;-26
2021/12/02 19:50:33;;;;;;;122.65;101.95;;;24.40;46.00;;;;;;4827041;54;21030;-22
2021/12/02 19:55:34;;;;;;;120.03;99.55;;;24.40;46.10;;;;;;4807206;54;21004;-26
2021/12/02 20:00:36;;;;;;;120.68;100.00;;;24.40;46.00;;;;;;4804043;54;21023;-25
2021/12/02 20:05:37;;;;;;;125.35;101.10;;;24.40;46.00;;;;;;4832997;54;21058;-21
2021/12/02 20:10:40;;;;;;;124.87;100.25;;;24.40;45.90;;;;;;4794665;58;21143;-26
2021/12/02 20:16:28;;;;;;;116.45;96.70;;;24.40;45.90;;;;;;4807839;54;21545;-29
2021/12/02 20:21:29;;;;;;;119.47;98.60;;;24.40;45.90;;;;;;4795684;54;21526;-27
2021/12/02 20:26:30;;;;;;;117.57;99.60;;;24.40;45.90;;;;;;4795045;55;21008;-27
2021/12/02 20:31:33;;;;;;;114.93;96.37;;;24.40;45.90;;;;;;4818665;54;21131;-27
2021/12/02 20:36:37;;;;;;;118.10;98.03;;;24.40;45.80;;;;;;4803005;54;21513;-28
2021/12/02 20:41:48;;;;;;;115.28;96.68;;;24.40;46.30;;;;;;4827137;54;21553;-23
2021/12/02 20:46:54;;;;;;;111.30;93.78;;;24.40;45.70;;;;;;4800152;54;21458;-27
2021/12/02 20:51:56;;;;;;;115.07;96.60;;;24.40;45.80;;;;;;4820419;54;21525;-26
2021/12/02 20:56:57;;;;;;;111.43;94.47;;;24.40;45.60;;;;;;4799290;54;21069;-28
2021/12/02 21:01:58;;;;;;;109.35;91.37;;;24.50;45.70;;;;;;4798310;54;21114;-27
2021/12/02 21:06:59;;;;;;;110.65;91.95;;;24.40;45.60;;;;;;4799551;54;21056;-21
2021/12/02 21:12:00;;;;;;;109.97;92.80;;;24.40;45.60;;;;;;4808914;54;21019;-23
2021/12/02 21:17:01;;;;;;;108.90;91.03;;;24.40;45.60;;;;;;4822408;54;21008;-25
2021/12/02 21:22:03;;;;;;;104.50;89.40;;;24.40;45.60;;;;;;4812526;54;21836;-24
2021/12/02 21:27:06;;;;;;;104.12;88.45;;;24.40;45.60;;;;;;4825951;54;21068;-22
2021/12/02 21:32:08;;;;;;;104.97;89.20;;;24.40;45.60;;;;;;4822046;54;21115;-33
2021/12/02 21:37:17;;;;;;;101.40;86.45;;;24.40;45.50;;;;;;4822927;54;22024;-26
2021/12/02 21:42:22;;;;;;;102.35;88.68;;;24.40;45.50;;;;;;4800094;54;21536;-27
2021/12/02 21:47:23;;;;;;;103.50;88.43;;;24.40;45.40;;;;;;4827383;54;21556;-26
2021/12/02 21:52:24;;;;;;;103.85;88.18;;;24.40;45.40;;;;;;4836382;54;21063;-26
2021/12/02 21:57:26;;;;;;;103.45;87.47;;;24.40;45.40;;;;;;4810588;54;21056;-25
2021/12/02 22:02:29;;;;;;;100.18;83.82;;;24.40;45.30;;;;;;4798157;54;21541;-26
2021/12/02 22:07:31;;;;;;;101.47;85.20;;;24.40;45.30;;;;;;4812122;54;21104;-25
2021/12/02 22:12:31;;;;;;;100.53;84.55;;;24.40;45.30;;;;;;4799807;54;21020;-27
2021/12/02 22:17:34;;;;;;;99.43;82.15;;;24.40;45.20;;;;;;4795298;58;21442;-27
2021/12/02 22:22:35;;;;;;;97.12;81.35;;;24.50;45.30;;;;;;4809245;54;21067;-28
2021/12/02 22:27:37;;;;;;;94.82;81.87;;;24.40;45.30;;;;;;4836491;54;21549;-26
2021/12/02 22:32:40;;;;;;;94.22;80.57;;;24.40;45.30;;;;;;4842072;54;21111;-27
2021/12/02 22:37:42;;;;;;;94.75;80.03;;;24.40;45.20;;;;;;4807056;54;21494;-19
2021/12/02 22:42:49;;;;;;;90.40;78.00;;;24.40;45.40;;;;;;4818301;54;21159;-26
2021/12/02 22:47:51;;;;;;;91.03;76.75;;;24.30;45.30;;;;;;4800252;54;21127;-29
2021/12/02 22:52:52;;;;;;;92.82;79.57;;;24.20;45.40;;;;;;4820640;54;21060;-29
2021/12/02 22:57:53;;;;;;;91.80;77.75;;;24.20;45.40;;;;;;4795462;58;21061;-27
2021/12/02 23:02:54;;;;;;;89.37;75.80;;;24.20;45.40;;;;;;4822818;54;21060;-24
2021/12/02 23:07:55;;;;;;;89.43;76.90;;;24.20;45.40;;;;;;4813138;54;21022;-25
2021/12/02 23:12:57;;;;;;;89.10;75.55;;;24.20;45.40;;;;;;4864776;54;21040;-26
2021/12/02 23:17:58;;;;;;;89.22;76.00;;;24.20;45.40;;;;;;4794861;54;21485;-27
2021/12/02 23:22:59;;;;;;;87.97;74.45;;;24.20;45.40;;;;;;4806719;54;21469;-21
2021/12/02 23:28:11;;;;;;;84.80;73.18;;;24.20;45.40;;;;;;4804061;54;21052;-28
2021/12/02 23:33:19;;;;;;;87.62;73.57;;;24.20;45.30;;;;;;4794814;58;21565;-23
2021/12/02 23:38:23;;;;;;;85.43;72.62;;;24.20;45.30;;;;;;4804657;54;21075;-26
2021/12/02 23:43:25;;;;;;;82.28;71.80;;;24.20;45.30;;;;;;4802231;54;21035;-24
2021/12/02 23:48:28;;;;;;;81.12;69.78;;;24.20;45.20;;;;;;4808457;54;21051;-26
2021/12/02 23:53:29;;;;;;;83.82;70.62;;;24.20;45.20;;;;;;4814775;54;21104;-27
2021/12/02 23:58:30;;;;;;;80.90;69.62;;;24.20;45.10;;;;;;4855499;54;21051;-22
